createdAt,value
2018-10-16T00:01:11.709Z,9.48
2018-10-16T00:03:40.344Z,9.57
2018-10-16T00:06:09.518Z,9.68
2018-10-16T00:08:38.553Z,9.58
2018-10-16T00:11:07.120Z,9.42
2018-10-16T00:13:35.789Z,9.98
2018-10-16T00:16:04.376Z,10.12
2018-10-16T00:18:32.985Z,10.07
2018-10-16T00:21:01.545Z,9.95
2018-10-16T00:23:30.141Z,9.36
2018-10-16T00:25:58.691Z,9.58
2018-10-16T00:28:27.340Z,9.95
2018-10-16T00:30:55.893Z,9.80
2018-10-16T00:33:24.480Z,9.55
2018-10-16T00:35:53.037Z,9.28
2018-10-16T00:38:21.673Z,9.25
2018-10-16T00:40:50.256Z,9.25
2018-10-16T00:43:18.841Z,9.49
2018-10-16T00:45:47.405Z,9.23
2018-10-16T00:48:15.984Z,8.81
2018-10-16T00:50:44.561Z,8.98
2018-10-16T00:53:13.145Z,9.10
2018-10-16T00:55:41.697Z,9.14
2018-10-16T00:58:10.548Z,8.82
2018-10-16T01:00:39.112Z,8.56
2018-10-16T01:03:07.728Z,8.68
2018-10-16T01:05:36.293Z,8.48
2018-10-16T01:08:04.909Z,8.51
2018-10-16T01:10:33.474Z,8.05
2018-10-16T01:13:02.070Z,8.43
2018-10-16T01:15:30.619Z,8.77
2018-10-16T01:17:59.225Z,8.15
2018-10-16T01:20:27.851Z,8.15
2018-10-16T01:22:56.427Z,8.21
2018-10-16T01:25:25.394Z,8.11
2018-10-16T01:27:53.977Z,8.29
2018-10-16T01:30:22.539Z,8.81
2018-10-16T01:35:30.489Z,9.08
2018-10-16T01:37:59.081Z,9.00
2018-10-16T01:40:27.628Z,9.12
2018-10-16T01:42:56.213Z,9.02
2018-10-16T01:45:25.051Z,8.63
2018-10-16T01:47:53.637Z,8.75
2018-10-16T01:50:22.176Z,8.61
2018-10-16T01:52:50.767Z,8.42
2018-10-16T01:55:19.310Z,8.16
2018-10-16T01:57:47.892Z,8.14
2018-10-16T02:00:16.445Z,8.10
2018-10-16T02:02:45.122Z,8.24
2018-10-16T02:05:13.612Z,8.01
2018-10-16T02:07:42.153Z,7.90
2018-10-16T02:10:10.760Z,7.91
2018-10-16T02:12:39.305Z,7.91
2018-10-16T02:15:08.960Z,8.24
2018-10-16T02:17:38.050Z,7.91
2018-10-16T02:20:07.029Z,8.30
2018-10-16T02:22:35.582Z,7.89
2018-10-16T02:25:26.213Z,7.65
2018-10-16T02:27:54.904Z,7.57
2018-10-16T02:30:24.318Z,7.56
2018-10-16T02:32:53.036Z,7.64
2018-10-16T02:35:21.646Z,7.48
2018-10-16T02:37:51.184Z,7.67
2018-10-16T02:40:21.284Z,7.86
2018-10-16T02:42:50.067Z,7.75
2018-10-16T02:45:18.646Z,7.69
2018-10-16T02:47:47.381Z,7.63
2018-10-16T02:50:16.262Z,7.63
2018-10-16T02:52:44.856Z,7.76
2018-10-16T02:55:13.544Z,8.02
2018-10-16T02:57:42.444Z,8.14
2018-10-16T03:00:11.048Z,8.25
2018-10-16T03:02:39.666Z,8.03
2018-10-16T03:05:08.277Z,8.14
2018-10-16T03:07:37.037Z,8.16
2018-10-16T03:10:05.873Z,8.08
2018-10-16T03:12:36.342Z,8.08
2018-10-16T03:15:08.052Z,8.36
2018-10-16T03:17:37.830Z,7.11
2018-10-16T03:20:07.199Z,7.48
2018-10-16T03:22:35.757Z,7.14
2018-10-16T03:25:05.505Z,7.41
2018-10-16T03:27:34.066Z,7.23
2018-10-16T03:30:02.673Z,7.33
2018-10-16T03:32:31.232Z,7.56
2018-10-16T03:34:59.849Z,7.99
2018-10-16T03:37:28.427Z,8.15
2018-10-16T03:39:57.306Z,8.07
2018-10-16T03:42:25.990Z,8.11
2018-10-16T03:44:54.557Z,8.25
2018-10-16T03:47:23.111Z,8.05
2018-10-16T03:49:51.703Z,7.62
2018-10-16T03:52:20.258Z,7.44
2018-10-16T03:54:48.842Z,7.00
2018-10-16T03:57:17.396Z,7.25
2018-10-16T03:59:46.026Z,7.73
2018-10-16T04:02:14.732Z,8.04
2018-10-16T04:04:43.308Z,7.75
2018-10-16T04:07:11.993Z,7.61
2018-10-16T04:09:40.588Z,7.49
2018-10-16T04:12:09.350Z,7.23
2018-10-16T04:14:38.308Z,7.40
2018-10-16T04:17:09.457Z,7.39
2018-10-16T04:19:43.439Z,7.32
2018-10-16T04:22:18.065Z,7.02
2018-10-16T04:24:55.649Z,7.00
2018-10-16T04:27:24.605Z,7.08
2018-10-16T04:29:57.214Z,7.17
2018-10-16T04:32:25.813Z,7.46
2018-10-16T04:34:54.501Z,7.21
2018-10-16T04:37:23.073Z,7.26
2018-10-16T04:39:51.678Z,7.27
2018-10-16T04:42:20.213Z,7.23
2018-10-16T04:44:48.766Z,7.47
2018-10-16T04:47:17.353Z,7.49
2018-10-16T04:49:45.893Z,7.18
2018-10-16T04:52:14.550Z,6.87
2018-10-16T04:54:43.098Z,7.06
2018-10-16T04:57:11.674Z,6.71
2018-10-16T04:59:40.230Z,6.85
2018-10-16T05:02:08.839Z,7.34
2018-10-16T05:04:37.390Z,7.47
2018-10-16T05:07:05.974Z,7.33
2018-10-16T05:09:34.527Z,7.31
2018-10-16T05:12:03.153Z,7.31
2018-10-16T05:14:33.497Z,6.95
2018-10-16T05:17:02.086Z,6.92
2018-10-16T05:19:31.324Z,7.11
2018-10-16T05:21:59.972Z,6.90
2018-10-16T05:24:28.503Z,6.99
2018-10-16T05:26:57.073Z,7.43
2018-10-16T05:29:25.616Z,7.02
2018-10-16T05:31:54.188Z,7.01
2018-10-16T05:34:22.721Z,7.33
2018-10-16T05:36:51.293Z,7.15
2018-10-16T05:39:19.953Z,7.30
2018-10-16T05:41:48.465Z,6.79
2018-10-16T05:44:17.024Z,6.92
2018-10-16T05:46:45.604Z,7.09
2018-10-16T05:49:14.154Z,6.92
2018-10-16T05:51:42.729Z,6.86
2018-10-16T05:54:11.323Z,7.03
2018-10-16T05:56:39.902Z,7.23
2018-10-16T05:59:08.444Z,7.29
2018-10-16T06:01:37.019Z,7.44
2018-10-16T06:04:05.931Z,7.43
2018-10-16T06:06:34.516Z,7.39
2018-10-16T06:09:03.254Z,7.54
2018-10-16T06:11:31.841Z,6.65
2018-10-16T06:14:00.384Z,6.82
2018-10-16T06:16:28.961Z,6.58
2018-10-16T06:18:57.520Z,6.62
2018-10-16T06:21:26.117Z,6.85
2018-10-16T06:23:54.717Z,7.21
2018-10-16T06:26:23.399Z,7.24
2018-10-16T06:28:51.991Z,7.26
2018-10-16T06:31:20.625Z,7.11
2018-10-16T06:33:49.293Z,7.11
2018-10-16T06:36:17.912Z,7.14
2018-10-16T06:38:46.507Z,7.26
2018-10-16T06:41:15.168Z,7.35
2018-10-16T06:43:43.694Z,7.34
2018-10-16T06:46:12.690Z,7.44
2018-10-16T06:48:41.535Z,7.63
2018-10-16T06:51:09.909Z,7.67
2018-10-16T06:53:38.530Z,7.73
2018-10-16T06:56:07.767Z,7.80
2018-10-16T06:58:36.373Z,7.92
2018-10-16T07:01:05.186Z,8.01
2018-10-16T07:03:33.785Z,8.18
2018-10-16T07:06:02.371Z,8.49
2018-10-16T07:08:30.997Z,8.49
2018-10-16T07:10:59.556Z,8.48
2018-10-16T07:13:28.154Z,8.63
2018-10-16T07:15:56.724Z,8.65
2018-10-16T07:18:25.338Z,8.65
2018-10-16T07:20:53.911Z,8.74
2018-10-16T07:23:22.579Z,8.98
2018-10-16T07:25:51.138Z,9.15
2018-10-16T07:28:19.769Z,9.18
2018-10-16T07:30:48.356Z,9.29
2018-10-16T07:33:16.973Z,9.36
2018-10-16T07:35:45.567Z,9.52
2018-10-16T07:38:14.289Z,9.61
2018-10-16T07:40:42.762Z,9.79
2018-10-16T07:43:11.406Z,9.84
2018-10-16T07:45:40.019Z,9.90
2018-10-16T07:48:08.665Z,9.92
2018-10-16T07:50:37.248Z,10.04
2018-10-16T07:53:06.084Z,10.07
2018-10-16T07:55:34.708Z,10.13
2018-10-16T07:58:03.352Z,10.44
2018-10-16T08:00:31.991Z,10.48
2018-10-16T08:03:00.625Z,10.59
2018-10-16T08:05:29.221Z,10.77
2018-10-16T08:07:57.829Z,10.84
2018-10-16T08:10:26.459Z,10.92
2018-10-16T08:12:55.077Z,10.96
2018-10-16T08:15:23.713Z,10.98
2018-10-16T08:17:52.362Z,11.08
2018-10-16T08:20:20.997Z,11.22
2018-10-16T08:22:49.602Z,11.31
2018-10-16T08:25:18.196Z,11.41
2018-10-16T08:27:46.758Z,11.51
2018-10-16T08:30:15.405Z,11.62
2018-10-16T08:32:44.017Z,11.68
2018-10-16T08:35:12.606Z,11.80
2018-10-16T08:39:50.857Z,11.83
2018-10-16T08:42:46.841Z,12.12
2018-10-16T08:45:27.484Z,12.22
2018-10-16T08:48:07.087Z,12.32
2018-10-16T08:50:48.565Z,12.46
2018-10-16T08:53:17.207Z,12.59
2018-10-16T08:55:45.939Z,12.80
2018-10-16T08:58:14.521Z,13.05
2018-10-16T09:00:43.112Z,13.15
2018-10-16T09:03:11.650Z,13.20
2018-10-16T09:05:40.253Z,13.33
2018-10-16T09:08:08.834Z,13.41
2018-10-16T09:10:37.433Z,13.53
2018-10-16T09:13:06.077Z,13.66
2018-10-16T09:15:34.603Z,13.77
2018-10-16T09:18:03.186Z,13.92
2018-10-16T09:20:31.733Z,14.11
2018-10-16T09:23:00.321Z,14.28
2018-10-16T09:25:28.942Z,14.39
2018-10-16T09:27:57.559Z,14.44
2018-10-16T09:30:26.117Z,14.53
2018-10-16T09:32:54.734Z,14.65
2018-10-16T09:35:23.321Z,14.75
2018-10-16T09:37:51.971Z,14.88
2018-10-16T09:40:20.504Z,15.02
2018-10-16T09:42:49.098Z,15.15
2018-10-16T09:45:17.680Z,15.23
2018-10-16T09:47:46.277Z,15.24
2018-10-16T09:50:14.846Z,15.35
2018-10-16T09:52:43.445Z,15.60
2018-10-16T09:55:12.017Z,15.78
2018-10-16T09:57:40.601Z,15.86
2018-10-16T10:00:16.004Z,15.99
2018-10-16T10:02:44.621Z,16.16
2018-10-16T10:05:13.227Z,16.28
2018-10-16T10:07:41.828Z,16.45
2018-10-16T10:10:10.742Z,16.52
2018-10-16T10:12:39.405Z,16.87
2018-10-16T10:15:08.090Z,16.84
2018-10-16T10:17:37.100Z,16.98
2018-10-16T10:20:06.145Z,17.13
2018-10-16T10:22:34.797Z,17.25
2018-10-16T10:25:03.438Z,17.51
2018-10-16T10:27:32.505Z,17.57
2018-10-16T10:30:01.867Z,17.86
2018-10-16T10:32:31.016Z,18.15
2018-10-16T10:34:59.871Z,18.16
2018-10-16T10:37:28.468Z,18.54
2018-10-16T10:39:57.026Z,18.61
2018-10-16T10:42:25.617Z,18.49
2018-10-16T10:44:54.197Z,18.65
2018-10-16T10:47:22.807Z,18.80
2018-10-16T10:49:51.954Z,18.90
2018-10-16T10:52:20.498Z,18.98
2018-10-16T10:54:49.137Z,18.97
2018-10-16T10:57:17.827Z,19.24
2018-10-16T10:59:46.350Z,19.18
2018-10-16T11:02:21.074Z,19.06
2018-10-16T11:04:50.226Z,18.83
2018-10-16T11:07:18.843Z,19.01
2018-10-16T11:09:47.449Z,19.14
2018-10-16T11:12:16.007Z,19.14
2018-10-16T11:14:44.602Z,19.20
2018-10-16T11:17:13.180Z,19.32
2018-10-16T11:19:41.758Z,19.53
2018-10-16T11:22:10.336Z,19.71
2018-10-16T11:24:38.936Z,19.87
2018-10-16T11:27:07.522Z,19.86
2018-10-16T11:29:36.101Z,19.86
2018-10-16T11:32:04.670Z,19.96
2018-10-16T11:34:33.285Z,19.90
2018-10-16T11:37:01.898Z,20.06
2018-10-16T11:39:30.425Z,20.25
2018-10-16T11:42:05.454Z,20.52
2018-10-16T11:44:34.290Z,20.67
2018-10-16T11:47:03.051Z,20.66
2018-10-16T11:49:32.197Z,20.89
2018-10-16T11:52:00.757Z,21.38
2018-10-16T11:54:29.336Z,21.37
2018-10-16T11:56:58.570Z,21.68
2018-10-16T11:59:27.313Z,21.44
2018-10-16T12:01:55.945Z,21.62
2018-10-16T12:04:24.516Z,21.78
2018-10-16T12:06:53.173Z,21.73
2018-10-16T12:09:23.221Z,21.73
2018-10-16T12:11:52.340Z,21.55
2018-10-16T12:14:24.273Z,21.68
2018-10-16T12:16:58.450Z,21.68
2018-10-16T12:19:33.882Z,21.59
2018-10-16T12:22:02.442Z,21.78
2018-10-16T12:24:30.996Z,21.88
2018-10-16T12:26:59.605Z,21.68
2018-10-16T12:29:31.617Z,21.52
2018-10-16T12:32:00.184Z,21.59
2018-10-16T12:34:28.753Z,21.68
2018-10-16T12:37:04.017Z,21.57
2018-10-16T12:39:39.565Z,21.48
2018-10-16T12:42:08.565Z,21.55
2018-10-16T12:44:40.953Z,21.55
2018-10-16T12:47:10.959Z,21.46
2018-10-16T12:49:47.640Z,21.40
2018-10-16T12:52:17.640Z,21.54
2018-10-16T12:54:47.440Z,21.63
2018-10-16T12:57:17.226Z,21.71
2018-10-16T12:59:47.270Z,21.76
2018-10-16T13:02:18.190Z,21.66
2018-10-16T13:04:49.173Z,21.61
2018-10-16T13:07:25.205Z,21.62
2018-10-16T13:09:56.760Z,21.65
2018-10-16T13:12:25.582Z,21.76
2018-10-16T13:14:55.257Z,21.67
2018-10-16T13:17:31.771Z,21.76
2018-10-16T13:20:04.430Z,21.64
2018-10-16T13:22:34.826Z,21.68
2018-10-16T13:25:04.832Z,21.72
2018-10-16T13:27:38.958Z,21.71
2018-10-16T13:30:13.789Z,21.73
2018-10-16T13:32:45.394Z,21.68
2018-10-16T13:35:15.553Z,21.73
2018-10-16T13:37:45.928Z,21.74
2018-10-16T13:40:15.514Z,21.81
2018-10-16T13:42:48.633Z,21.91
2018-10-16T13:45:19.927Z,21.98
2018-10-16T13:50:26.157Z,22.46
2018-10-16T13:52:57.306Z,22.45
2018-10-16T13:55:29.733Z,22.61
2018-10-16T13:58:02.068Z,22.57
2018-10-16T14:00:30.763Z,22.47
2018-10-16T14:02:59.728Z,22.49
2018-10-16T14:05:30.478Z,22.47
2018-10-16T14:07:59.102Z,22.48
2018-10-16T14:10:36.624Z,22.41
2018-10-16T14:13:10.591Z,22.46
2018-10-16T14:15:39.549Z,22.37
2018-10-16T14:18:09.760Z,22.31
2018-10-16T14:20:41.764Z,22.19
2018-10-16T14:23:10.391Z,22.09
2018-10-16T14:25:46.472Z,22.02
2018-10-16T14:28:21.837Z,21.94
2018-10-16T14:30:54.210Z,21.89
2018-10-16T14:33:29.806Z,21.86
2018-10-16T14:36:08.577Z,21.88
2018-10-16T14:38:44.562Z,21.85
2018-10-16T14:41:25.130Z,21.81
2018-10-16T14:44:00.559Z,21.78
2018-10-16T14:46:35.676Z,21.74
2018-10-16T14:55:02.904Z,21.70
2018-10-16T14:57:40.960Z,21.73
2018-10-16T15:00:19.265Z,21.61
2018-10-16T15:02:55.172Z,21.58
2018-10-16T15:05:32.218Z,21.54
2018-10-16T15:08:04.155Z,21.51
2018-10-16T15:10:33.315Z,21.45
2018-10-16T15:13:07.325Z,21.44
2018-10-16T15:18:06.850Z,21.89
2018-10-16T15:20:43.651Z,21.58
2018-10-16T15:23:15.048Z,21.34
2018-10-16T15:25:44.460Z,21.26
2018-10-16T15:28:15.513Z,21.38
2018-10-16T15:30:45.801Z,21.77
2018-10-16T15:33:16.036Z,22.27
2018-10-16T15:35:44.597Z,22.76
2018-10-16T15:38:13.255Z,22.80
2018-10-16T15:40:41.733Z,22.71
2018-10-16T15:43:10.301Z,22.58
2018-10-16T15:45:38.838Z,22.37
2018-10-16T15:48:07.485Z,22.35
2018-10-16T15:50:36.047Z,22.30
2018-10-16T15:53:04.629Z,22.17
2018-10-16T15:55:33.160Z,21.96
2018-10-16T15:58:01.793Z,21.83
2018-10-16T16:00:30.278Z,21.73
2018-10-16T16:02:58.843Z,21.61
2018-10-16T16:05:27.368Z,21.44
2018-10-16T16:07:56.219Z,21.42
2018-10-16T16:10:24.953Z,21.34
2018-10-16T16:12:54.317Z,21.13
2018-10-16T16:15:22.873Z,20.90
2018-10-16T16:17:53.202Z,20.57
2018-10-16T16:20:23.543Z,20.41
2018-10-16T16:22:52.256Z,20.05
2018-10-16T16:25:21.968Z,19.88
2018-10-16T16:27:50.682Z,19.86
2018-10-16T16:30:19.229Z,19.82
2018-10-16T16:32:47.797Z,19.67
2018-10-16T16:35:16.385Z,19.43
2018-10-16T16:37:44.945Z,19.24
2018-10-16T16:40:14.594Z,19.01
2018-10-16T16:42:43.449Z,18.88
2018-10-16T16:45:20.648Z,18.61
2018-10-16T16:47:50.508Z,18.16
2018-10-16T16:50:20.327Z,18.16
2018-10-16T16:52:50.293Z,18.14
2018-10-16T16:55:21.638Z,18.01
2018-10-16T16:57:50.939Z,17.79
2018-10-16T17:00:20.890Z,17.81
2018-10-16T17:02:50.256Z,17.57
2018-10-16T17:05:19.029Z,17.40
2018-10-16T17:07:54.555Z,17.38
2018-10-16T17:10:25.723Z,17.19
2018-10-16T17:12:59.324Z,17.14
2018-10-16T17:15:30.894Z,16.81
2018-10-16T17:18:02.650Z,16.42
2018-10-16T17:23:09.963Z,16.05
2018-10-16T17:25:38.938Z,15.91
2018-10-16T17:28:08.755Z,15.71
2018-10-16T17:30:39.642Z,15.40
2018-10-16T17:33:10.146Z,15.23
2018-10-16T17:35:39.136Z,15.21
2018-10-16T17:38:07.701Z,15.27
2018-10-16T17:40:36.357Z,15.09
2018-10-16T17:43:06.925Z,14.87
2018-10-16T17:45:35.504Z,14.72
2018-10-16T17:48:04.182Z,15.11
2018-10-16T17:50:32.733Z,15.13
2018-10-16T17:53:01.339Z,15.12
2018-10-16T17:55:32.537Z,14.80
2018-10-16T17:58:01.144Z,14.87
2018-10-16T18:00:29.700Z,14.68
2018-10-16T18:03:00.462Z,14.80
2018-10-16T18:05:29.234Z,14.54
2018-10-16T18:07:59.547Z,14.34
2018-10-16T18:10:28.263Z,14.28
2018-10-16T18:12:59.057Z,14.35
2018-10-16T18:15:30.325Z,14.44
2018-10-16T18:17:58.923Z,14.37
2018-10-16T18:20:27.512Z,14.26
2018-10-16T18:22:57.274Z,14.05
2018-10-16T18:25:25.875Z,13.83
2018-10-16T18:27:54.401Z,13.55
2018-10-16T18:30:24.721Z,13.77
2018-10-16T18:32:53.309Z,13.56
2018-10-16T18:35:21.875Z,13.53
2018-10-16T18:37:50.492Z,13.77
2018-10-16T18:40:19.066Z,13.68
2018-10-16T18:42:47.618Z,13.45
2018-10-16T18:45:17.760Z,13.52
2018-10-16T18:47:47.704Z,13.40
2018-10-16T18:50:16.265Z,13.64
2018-10-16T18:52:47.956Z,13.77
2018-10-16T18:55:16.620Z,13.76
2018-10-16T18:57:45.153Z,13.59
2018-10-16T19:00:16.570Z,13.44
2018-10-16T19:02:48.473Z,13.49
2018-10-16T19:05:19.333Z,13.53
2018-10-16T19:07:52.013Z,13.36
2018-10-16T19:10:20.896Z,13.12
2018-10-16T19:12:56.191Z,13.38
2018-10-16T19:15:30.159Z,13.43
2018-10-16T19:18:01.617Z,13.16
2018-10-16T19:20:36.224Z,13.20
2018-10-16T19:23:06.132Z,13.22
2018-10-16T19:25:34.753Z,13.23
2018-10-16T19:28:03.368Z,13.20
2018-10-16T19:30:31.931Z,12.84
2018-10-16T19:33:00.527Z,13.29
2018-10-16T19:35:29.062Z,13.12
2018-10-16T19:38:00.741Z,13.11
2018-10-16T19:40:29.450Z,12.87
2018-10-16T19:42:57.993Z,12.98
2018-10-16T19:45:36.434Z,13.13
2018-10-16T19:48:06.180Z,13.22
2018-10-16T19:50:35.126Z,13.19
2018-10-16T19:53:04.786Z,13.34
2018-10-16T19:55:36.451Z,12.88
2018-10-16T19:58:06.341Z,12.70
2018-10-16T20:00:38.197Z,12.68
2018-10-16T20:03:07.066Z,12.51
2018-10-16T20:05:35.553Z,12.49
2018-10-16T20:08:05.960Z,12.38
2018-10-16T20:10:35.716Z,12.04
2018-10-16T20:13:04.328Z,12.35
2018-10-16T20:15:33.092Z,12.60
2018-10-16T20:18:07.680Z,12.45
2018-10-16T20:20:41.125Z,12.62
2018-10-16T20:23:11.469Z,12.94
2018-10-16T20:25:44.702Z,12.68
2018-10-16T20:28:15.542Z,12.58
2018-10-16T20:30:50.524Z,12.54
2018-10-16T20:33:20.877Z,12.37
2018-10-16T20:35:54.087Z,12.57
2018-10-16T20:38:24.554Z,12.47
2018-10-16T20:40:55.333Z,12.54
2018-10-16T20:43:27.109Z,12.30
2018-10-16T20:45:56.423Z,12.34
2018-10-16T20:48:26.028Z,12.31
2018-10-16T20:51:00.989Z,12.34
2018-10-16T20:53:33.216Z,12.24
2018-10-16T20:56:01.970Z,12.11
2018-10-16T20:58:35.281Z,12.27
2018-10-16T21:01:04.129Z,12.08
2018-10-16T21:03:32.666Z,11.86
2018-10-16T21:06:09.356Z,12.01
2018-10-16T21:08:39.600Z,12.04
2018-10-16T21:11:10.064Z,12.08
2018-10-16T21:13:40.180Z,12.13
2018-10-16T21:16:08.753Z,12.24
2018-10-16T21:18:37.845Z,12.24
2018-10-16T21:21:12.714Z,11.88
2018-10-16T21:23:41.460Z,11.41
2018-10-16T21:26:14.225Z,11.52
2018-10-16T21:28:44.420Z,11.45
2018-10-16T21:31:15.581Z,11.63
2018-10-16T21:33:45.467Z,11.41
2018-10-16T21:36:15.914Z,11.33
2018-10-16T21:38:46.184Z,11.12
2018-10-16T21:41:15.607Z,11.14
2018-10-16T21:43:47.418Z,10.97
2018-10-16T21:46:16.817Z,10.75
2018-10-16T21:48:45.381Z,10.75
2018-10-16T21:51:14.057Z,10.67
2018-10-16T21:53:44.265Z,10.63
2018-10-16T21:56:13.545Z,10.67
2018-10-16T21:58:43.959Z,11.10
2018-10-16T22:01:13.934Z,11.22
2018-10-16T22:03:43.980Z,11.29
2018-10-16T22:06:13.686Z,11.38
2018-10-16T22:08:43.952Z,11.56
2018-10-16T22:11:12.590Z,11.68
2018-10-16T22:13:41.088Z,11.64
2018-10-16T22:16:15.971Z,11.57
2018-10-16T22:18:48.105Z,11.60
2018-10-16T22:21:16.895Z,11.57
2018-10-16T22:23:47.960Z,11.59
2018-10-16T22:26:17.669Z,11.63
2018-10-16T22:28:47.673Z,11.57
2018-10-16T22:31:17.202Z,11.25
2018-10-16T22:33:46.274Z,11.41
2018-10-16T22:36:16.627Z,11.27
2018-10-16T22:38:45.897Z,11.03
2018-10-16T22:41:15.601Z,10.80
2018-10-16T22:43:44.682Z,10.29
2018-10-16T22:46:13.506Z,10.05
2018-10-16T22:48:45.060Z,10.43
2018-10-16T22:51:14.590Z,10.83
2018-10-16T22:53:44.284Z,10.66
2018-10-16T22:56:12.820Z,10.92
2018-10-16T22:58:42.680Z,10.77
2018-10-16T23:01:12.139Z,10.52
2018-10-16T23:03:40.756Z,9.80
2018-10-16T23:06:10.100Z,9.86
2018-10-16T23:08:40.233Z,10.13
2018-10-16T23:11:08.842Z,10.08
2018-10-16T23:13:38.299Z,10.23
2018-10-16T23:16:07.504Z,10.50
2018-10-16T23:18:36.966Z,10.39
2018-10-16T23:21:06.189Z,10.48
2018-10-16T23:23:35.363Z,10.24
2018-10-16T23:26:04.236Z,10.11
2018-10-16T23:28:33.539Z,9.74
2018-10-16T23:31:03.042Z,9.52
2018-10-16T23:33:31.750Z,9.57
2018-10-16T23:36:00.860Z,9.47
2018-10-16T23:38:29.497Z,9.69
2018-10-16T23:41:02.022Z,9.91
2018-10-16T23:43:31.550Z,10.09
2018-10-16T23:46:01.247Z,9.76
2018-10-16T23:48:31.488Z,9.69
2018-10-16T23:51:01.358Z,9.72
2018-10-16T23:53:32.242Z,9.75
2018-10-16T23:56:01.556Z,10.01
2018-10-16T23:58:31.829Z,9.93
